Decoded Metar for SAEZ (BUENOS AIRES/EZE in ARGENTINA) (IATA:N/A) | Meteo·Mobile Aviation Weather
aviador You're here:

SAEZ Decoded Metar

BUENOS AIRES/EZE in ARGENTINA
Report Time2019-02-16 05:00:00
UTC Time2019-02-16 06:56:42
Flight Rules Old
WindCalm
Visibility9999 m
Phenomena:N/A
Clouds:N/A
CeilingNone
Temp15°C (ISA 0)
Dew Point15°C (100% RH)
QNH1016 hPa
Density Alt207 ft
Elevation66 ft
Report Wrong Elevation
Raw Report
METAR SAEZ 160500Z 00000KT CAVOK 15/15 Q1016 NOSIG=

Extra information for SAEZ:More info

Metar Taf Metar & Taf Last 4 Metars F.Rules Stats Wind Profile Meteogram Temp Stats Airport Information Weather charts Add Link Nearby VenuesMetar ALERT Operation Metar Decoded Social comments